Aplicació Alertes

Dades de l'estació automàtica Cassà de la Selva

?
?
Resum diari 23:00 TU
Dades diàries de l'estació meteorològica
Temperatura mitjana 11.8 °C
Temperatura màxima 19.1 °C 10:59 TU
Temperatura mínima 6.3 °C 6:56 TU
Humitat relativa mitjana 77%
Precipitació acumulada 0.0 mm
Ratxa màxima del vent (2 m) 14.0 km/h - 224º 13:31 TU
Irradiació solar global 7.2 MJ/m2

El tram horari està expressat en Temps Universal (TU). Cal sumar una hora en horari d'hivern i dues en horari d'estiu per passar a l'hora oficial.

Cassà de la Selva

Metadades estació meteorol´gica
Municipi Cassà de la Selva
Comarca Gironès
Altitud 171 m
Data alta 08.03.1993
Estat actual Operativa
Dades de període
Període
TU
TM
°C
TX
°C
TN
°C
HRM
%
PPT
mm
VVM (2 m)
km/h
DVM (2 m)
graus
VVX (2 m)
km/h
RS
W/m2
00:00 - 00:30 7.7 7.8 7.4 89 0.0 1.1 324 4.7 0
00:30 - 01:00 7.8 7.9 7.5 88 0.0 1.1 5 4.7 0
01:00 - 01:30 7.3 7.4 7.2 90 0.0 0.7 19 5.0 0
01:30 - 02:00 7.9 8.6 7.4 89 0.0 1.4 47 8.3 0
02:00 - 02:30 9.4 9.5 8.7 82 0.0 0.4 29 4.0 0
02:30 - 03:00 9.2 9.6 8.9 84 0.0 1.8 30 6.1 0
03:00 - 03:30 8.9 9.2 8.8 85 0.0 1.4 56 4.7 0
03:30 - 04:00 8.8 9.1 8.6 86 0.0 0.7 71 4.0 0
04:00 - 04:30 8.8 8.9 8.6 86 0.0 1.8 24 6.8 0
04:30 - 05:00 9.0 9.3 8.8 85 0.0 0.7 174 4.7 0
05:00 - 05:30 9.4 9.8 8.7 81 0.0 1.1 51 4.0 0
05:30 - 06:00 8.0 8.7 7.1 86 0.0 0.7 34 4.3 0
06:00 - 06:30 6.9 7.2 6.6 91 0.0 1.1 39 4.7 0
06:30 - 07:00 6.5 6.7 6.3 93 0.0 1.1 60 4.0 0
07:00 - 07:30 7.1 7.6 6.5 93 0.0 1.1 58 4.7 27
07:30 - 08:00 8.5 10.1 7.6 90 0.0 1.1 67 5.0 95
08:00 - 08:30 11.7 12.5 10.2 81 0.0 1.4 234 8.6 154
08:30 - 09:00 12.8 13.7 11.9 77 0.0 1.4 208 6.1 210
09:00 - 09:30 14.9 16.1 13.7 68 0.0 1.8 205 6.1 317
09:30 - 10:00 16.2 16.5 15.9 60 0.0 3.2 217 8.6 344
10:00 - 10:30 17.4 18.7 16.1 54 0.0 1.8 167 7.6 396
10:30 - 11:00 18.7 19.1 18.4 48 0.0 1.8 197 5.4 432
11:00 - 11:30 18.6 19.0 18.1 49 0.0 3.6 226 9.0 320
11:30 - 12:00 17.8 18.2 17.5 53 0.0 2.9 225 7.9 192
12:00 - 12:30 17.3 17.5 17.2 57 0.0 2.5 238 9.4 204
12:30 - 13:00 17.9 18.5 17.5 55 0.0 1.1 242 4.3 260
13:00 - 13:30 17.8 18.4 16.9 57 0.0 4.7 232 10.8 244
13:30 - 14:00 17.0 17.5 16.7 63 0.0 2.5 241 14.0 201
14:00 - 14:30 17.3 17.7 16.4 61 0.0 2.9 241 10.1 156
14:30 - 15:00 16.3 16.5 16.1 63 0.0 1.4 231 4.7 99
15:00 - 15:30 17.0 18.0 16.0 61 0.0 1.4 97 5.4 163
15:30 - 16:00 17.7 18.4 17.4 58 0.0 2.9 119 7.6 139
16:00 - 16:30 17.9 18.4 17.6 59 0.0 2.2 123 7.9 95
16:30 - 17:00 16.9 17.9 15.3 60 0.0 2.5 109 7.2 14
17:00 - 17:30 13.9 15.1 12.8 74 0.0 1.4 93 5.4 0
17:30 - 18:00 12.1 12.7 11.7 79 0.0 1.1 76 5.8 0
18:00 - 18:30 11.0 11.7 10.4 80 0.0 1.1 46 4.7 0
18:30 - 19:00 9.9 10.3 9.4 83 0.0 0.4 59 5.4 0
19:00 - 19:30 9.6 9.8 9.2 84 0.0 0.7 46 3.6 0
19:30 - 20:00 8.9 9.3 8.7 86 0.0 0.4 56 4.3 0
20:00 - 20:30 8.7 8.8 8.6 88 0.0 0.4 45 2.9 0
20:30 - 21:00 9.2 9.9 8.7 88 0.0 1.1 30 6.5 0
21:00 - 21:30 8.8 9.0 8.6 89 0.0 0.7 27 3.2 0
21:30 - 22:00 8.5 9.0 8.3 91 0.0 0.7 56 4.3 0
22:00 - 22:30 8.4 8.8 8.1 93 0.0 0.7 73 3.6 0
22:30 - 23:00 7.8 8.0 7.6 94 0.0 0.7 28 3.6 0
23:00 - 23:30 7.3 7.6 7.0 96 0.0 1.1 65 5.8 0

Les dades en taronja només han passat un control de qualitat automàtic. Resta pendent la seva validació definitiva.